Terminal Aerodrome Forecast
Issued by NWS

Home | Current Version | Previous Version | Text Only | Print | Product List | Glossary On
Versions: 1 2 3 4 5 6 7 8 9 10 11 12 13 14 15 16 17 18 19
000
FTUS43 KMPX 190903 AAA
TAFRNH
TAF AMD
KRNH 190903Z 1909/2006 17005KT 6SM BR SKC
     FM191600 16006KT 3SM BR OVC005
     FM192100 17007KT 6SM BR SCT010 OVC040
     FM200200 16004KT 5SM BR OVC013=

USA.gov is the U.S. government's official web portal to all federal, state and local government web resources and services.